Time;durP1;ratioP1;P1;durP2;ratioP2;P2;SDS_P1;SDS_P2;PMS_P1;PMS_P2;Temp;Humidity;BMP_temperature;BMP_pressure;BME280_temperature;BME280_humidity;BME280_pressure;Samples;Min_cycle;Max_cycle;Signal;HPM_P1;HPM_P2
2023/03/05 00:00:07;;;;;;;2.55;0.77;;;6.70;99.90;;;;;;5078351;28;20017;-68
2023/03/05 00:02:33;;;;;;;4.35;0.98;;;6.70;99.90;;;;;;5078420;28;20027;-68
2023/03/05 00:04:58;;;;;;;6.63;0.90;;;6.60;99.90;;;;;;5078652;28;20016;-68
2023/03/05 00:07:24;;;;;;;6.10;0.80;;;6.50;99.90;;;;;;5078424;28;20111;-67
2023/03/05 00:09:49;;;;;;;4.05;1.00;;;6.50;99.90;;;;;;5077806;28;20115;-68
2023/03/05 00:12:16;;;;;;;1.08;0.90;;;6.50;99.90;;;;;;5078415;28;20124;-68
2023/03/05 00:14:41;;;;;;;3.33;0.90;;;6.60;99.90;;;;;;5077398;28;20021;-68
2023/03/05 00:17:06;;;;;;;5.47;0.85;;;6.60;99.90;;;;;;5077786;28;20024;-68
2023/03/05 00:19:32;;;;;;;3.63;0.70;;;6.60;99.90;;;;;;5077620;28;20031;-68
2023/03/05 00:21:57;;;;;;;5.95;1.02;;;6.70;99.90;;;;;;5077263;28;20031;-68
2023/03/05 00:24:23;;;;;;;2.63;0.80;;;6.60;99.90;;;;;;5078350;28;20028;-68
2023/03/05 00:26:48;;;;;;;7.97;1.00;;;6.60;99.90;;;;;;5078184;28;20052;-68
2023/03/05 00:29:17;;;;;;;3.95;0.65;;;6.70;99.90;;;;;;5077292;28;20059;-68
2023/03/05 00:31:43;;;;;;;3.50;0.90;;;6.60;99.90;;;;;;5077087;28;20024;-68
2023/03/05 00:34:12;;;;;;;4.35;0.70;;;6.70;99.90;;;;;;5077046;28;20024;-68
2023/03/05 00:36:40;;;;;;;3.63;1.00;;;6.70;99.90;;;;;;5077525;28;20113;-68
2023/03/05 00:39:06;;;;;;;3.20;0.80;;;6.80;99.90;;;;;;5078649;28;20158;-68
2023/03/05 00:41:32;;;;;;;5.05;0.98;;;6.70;99.90;;;;;;5077727;28;20064;-68
2023/03/05 00:43:57;;;;;;;5.32;0.80;;;6.70;99.90;;;;;;5078048;28;20051;-68
2023/03/05 00:46:26;;;;;;;3.20;0.70;;;6.60;99.90;;;;;;5076790;28;20066;-68
2023/03/05 00:48:52;;;;;;;4.72;1.52;;;6.60;99.90;;;;;;5076449;28;20021;-68
2023/03/05 00:51:18;;;;;;;3.70;1.20;;;6.60;99.90;;;;;;5077296;28;20074;-65
2023/03/05 00:53:44;;;;;;;4.05;0.95;;;6.60;99.90;;;;;;5077531;28;20078;-66
2023/03/05 00:56:10;;;;;;;7.72;0.90;;;6.60;99.90;;;;;;5076843;28;20021;-66
2023/03/05 00:58:35;;;;;;;2.22;0.95;;;6.60;99.90;;;;;;5077856;28;20047;-65
2023/03/05 01:01:01;;;;;;;1.77;0.80;;;6.50;99.90;;;;;;5077395;28;20024;-65
2023/03/05 01:03:28;;;;;;;2.75;0.77;;;6.60;99.90;;;;;;5082425;28;20032;-68
2023/03/05 01:05:54;;;;;;;3.00;0.90;;;6.60;99.90;;;;;;5077460;28;20108;-69
2023/03/05 01:08:19;;;;;;;7.03;1.05;;;6.60;99.90;;;;;;5077477;28;20118;-69
2023/03/05 01:10:45;;;;;;;5.40;1.13;;;6.60;99.90;;;;;;5076851;28;20029;-69
2023/03/05 01:13:10;;;;;;;5.47;1.13;;;6.60;99.90;;;;;;5076378;28;20017;-69
2023/03/05 01:15:36;;;;;;;6.40;1.10;;;6.60;99.90;;;;;;5076406;28;20028;-69
2023/03/05 01:18:01;;;;;;;3.70;0.82;;;6.60;99.90;;;;;;5076547;28;20028;-69
2023/03/05 01:20:27;;;;;;;5.22;0.90;;;6.50;99.90;;;;;;5077250;28;20024;-69
2023/03/05 01:22:53;;;;;;;2.10;0.65;;;6.40;99.90;;;;;;5076802;28;20028;-68
2023/03/05 01:25:19;;;;;;;2.95;0.90;;;6.40;99.90;;;;;;5077494;28;20066;-68
2023/03/05 01:27:44;;;;;;;3.72;1.15;;;6.50;99.90;;;;;;5079089;28;20016;-68
2023/03/05 01:30:12;;;;;;;2.55;0.75;;;6.50;99.90;;;;;;5080283;28;20025;-68
2023/03/05 01:32:38;;;;;;;4.07;0.80;;;6.50;99.90;;;;;;5076265;28;20025;-68
2023/03/05 01:35:05;;;;;;;1.95;0.80;;;6.50;99.90;;;;;;5077038;28;20024;-69
2023/03/05 01:37:31;;;;;;;3.22;1.02;;;6.50;99.90;;;;;;5077250;28;20032;-69
2023/03/05 01:39:56;;;;;;;7.80;1.20;;;6.50;99.90;;;;;;5076963;28;20028;-66
2023/03/05 01:42:22;;;;;;;5.22;0.90;;;6.60;99.90;;;;;;5077396;28;20099;-66
2023/03/05 01:45:05;;;;;;;2.22;0.52;;;6.50;99.90;;;;;;5076341;28;20032;-66
2023/03/05 01:47:31;;;;;;;2.15;0.70;;;6.50;99.90;;;;;;5077452;28;20021;-66
2023/03/05 01:49:57;;;;;;;6.72;1.23;;;6.50;99.90;;;;;;5076815;28;20027;-65
2023/03/05 01:52:25;;;;;;;6.30;0.90;;;6.60;99.90;;;;;;5077120;28;20047;-66
2023/03/05 01:54:58;;;;;;;2.38;0.93;;;6.60;99.90;;;;;;5076199;28;20024;-66
2023/03/05 01:57:36;;;;;;;3.90;0.88;;;6.50;99.90;;;;;;5076917;28;20115;-66
2023/03/05 02:00:13;;;;;;;6.20;1.00;;;6.50;99.90;;;;;;5078790;28;20113;-66
2023/03/05 02:02:40;;;;;;;2.70;0.65;;;6.40;99.90;;;;;;5081882;28;20025;-66
2023/03/05 02:05:09;;;;;;;3.42;0.75;;;6.30;99.90;;;;;;5080360;28;20046;-66
2023/03/05 02:07:38;;;;;;;6.50;1.00;;;6.20;99.90;;;;;;5085933;28;20029;-66
2023/03/05 02:10:19;;;;;;;5.32;1.00;;;6.20;99.90;;;;;;5080570;28;20025;-66
2023/03/05 02:12:47;;;;;;;5.10;1.02;;;6.10;99.90;;;;;;5081763;28;20025;-66
2023/03/05 02:15:13;;;;;;;2.65;0.80;;;6.10;99.90;;;;;;5080768;28;20111;-66
2023/03/05 02:17:39;;;;;;;2.75;0.73;;;6.10;99.90;;;;;;5081705;28;20036;-65
2023/03/05 02:20:12;;;;;;;5.70;0.70;;;6.10;99.90;;;;;;5081417;28;20028;-65
2023/03/05 02:22:38;;;;;;;2.95;1.05;;;6.10;99.90;;;;;;5081009;28;20048;-66
2023/03/05 02:25:27;;;;;;;1.70;0.68;;;6.10;99.90;;;;;;5081079;28;20024;-65
2023/03/05 02:28:00;;;;;;;2.17;0.85;;;6.10;99.90;;;;;;5080020;28;20029;-66
2023/03/05 02:30:26;;;;;;;5.93;0.90;;;6.20;99.90;;;;;;5082056;28;20020;-66
2023/03/05 02:32:52;;;;;;;3.80;1.13;;;6.20;99.90;;;;;;5081211;28;20044;-65
2023/03/05 02:35:18;;;;;;;3.00;0.88;;;6.20;99.90;;;;;;5085785;28;20024;-66
2023/03/05 02:37:43;;;;;;;4.20;0.60;;;6.20;99.90;;;;;;5083967;28;20124;-66
2023/03/05 02:40:10;;;;;;;5.10;0.52;;;6.20;99.90;;;;;;5082165;28;20024;-67
2023/03/05 02:42:35;;;;;;;3.00;0.88;;;6.20;99.90;;;;;;5079412;28;20091;-68
2023/03/05 02:45:02;;;;;;;4.82;0.90;;;6.10;99.90;;;;;;5079655;28;20036;-68
2023/03/05 02:47:28;;;;;;;1.58;0.40;;;6.20;99.90;;;;;;5079394;28;20024;-68
2023/03/05 02:49:53;;;;;;;3.50;0.63;;;6.10;99.90;;;;;;5079407;28;20047;-68
2023/03/05 02:52:22;;;;;;;2.72;0.77;;;6.10;99.90;;;;;;5080033;28;20078;-68
2023/03/05 02:54:48;;;;;;;2.58;0.30;;;6.00;99.90;;;;;;5080157;28;20048;-68
2023/03/05 02:57:13;;;;;;;5.40;0.50;;;5.90;99.90;;;;;;5079326;28;20027;-68
2023/03/05 02:59:39;;;;;;;1.05;0.45;;;5.90;99.90;;;;;;5080170;28;20028;-68
2023/03/05 03:02:04;;;;;;;1.20;0.30;;;5.90;99.90;;;;;;5079111;28;20025;-68
2023/03/05 03:04:30;;;;;;;3.03;0.57;;;5.80;99.90;;;;;;5079165;28;20032;-68
2023/03/05 03:06:55;;;;;;;4.63;0.50;;;5.80;99.90;;;;;;5081902;28;20016;-67
2023/03/05 03:09:21;;;;;;;2.65;0.57;;;5.90;99.90;;;;;;5080775;28;20017;-67
2023/03/05 03:11:47;;;;;;;4.20;1.05;;;5.90;99.90;;;;;;5083381;28;20028;-67
2023/03/05 03:14:12;;;;;;;3.75;0.55;;;5.90;99.90;;;;;;5078870;28;20056;-68
2023/03/05 03:16:38;;;;;;;3.60;0.70;;;5.80;99.90;;;;;;5078750;28;20111;-68
2023/03/05 03:19:03;;;;;;;0.20;0.10;;;5.90;99.90;;;;;;5078580;28;20111;-68
2023/03/05 03:21:29;;;;;;;0.82;0.30;;;6.00;99.90;;;;;;5078917;28;20023;-68
2023/03/05 03:23:54;;;;;;;2.88;0.47;;;6.00;99.90;;;;;;5079045;28;20054;-66
2023/03/05 03:26:20;;;;;;;1.08;0.40;;;6.00;99.90;;;;;;5078803;28;20074;-66
2023/03/05 03:28:46;;;;;;;1.73;0.40;;;6.00;99.90;;;;;;5078429;28;20013;-66
2023/03/05 03:31:11;;;;;;;0.50;0.28;;;6.00;99.90;;;;;;5079447;28;20080;-65
2023/03/05 03:33:37;;;;;;;2.42;0.70;;;6.00;99.90;;;;;;5079434;28;20064;-66
2023/03/05 03:36:04;;;;;;;1.60;0.40;;;6.10;99.90;;;;;;5078335;28;20120;-65
2023/03/05 03:38:29;;;;;;;1.55;0.73;;;6.00;99.90;;;;;;5078199;28;20021;-66
2023/03/05 03:40:55;;;;;;;3.13;0.73;;;6.00;99.90;;;;;;5078519;28;20032;-66
2023/03/05 03:43:21;;;;;;;1.55;0.50;;;6.00;99.90;;;;;;5077938;28;20032;-66
2023/03/05 03:45:46;;;;;;;2.53;0.28;;;6.10;99.90;;;;;;5078948;28;20051;-66
2023/03/05 03:48:12;;;;;;;1.95;0.47;;;6.10;99.90;;;;;;5078128;28;20032;-66
2023/03/05 03:50:39;;;;;;;0.60;0.25;;;6.00;99.90;;;;;;5078077;28;20119;-66
2023/03/05 03:53:05;;;;;;;3.13;0.40;;;6.00;99.90;;;;;;5077866;28;20028;-66
2023/03/05 03:55:30;;;;;;;2.05;0.50;;;6.00;99.90;;;;;;5078010;28;20152;-66
2023/03/05 03:57:56;;;;;;;5.63;0.50;;;6.10;99.90;;;;;;5077814;28;20025;-66
2023/03/05 04:00:21;;;;;;;5.00;0.60;;;6.20;99.90;;;;;;5078646;28;20036;-66
2023/03/05 04:02:47;;;;;;;4.60;0.40;;;6.30;99.90;;;;;;5077514;28;20020;-66
2023/03/05 04:05:12;;;;;;;2.35;0.55;;;6.30;99.90;;;;;;5078695;28;20021;-66
2023/03/05 04:07:38;;;;;;;1.17;0.50;;;6.40;99.90;;;;;;5077838;28;20017;-66
2023/03/05 04:10:04;;;;;;;2.13;0.70;;;6.40;99.90;;;;;;5078485;28;20023;-66
2023/03/05 04:12:30;;;;;;;1.98;0.50;;;6.30;99.90;;;;;;5077561;28;20029;-66
2023/03/05 04:14:55;;;;;;;2.67;0.50;;;6.20;99.90;;;;;;5082355;28;20026;-68
2023/03/05 04:17:21;;;;;;;2.75;0.35;;;6.30;99.90;;;;;;5077355;28;20074;-68
2023/03/05 04:19:46;;;;;;;3.47;0.68;;;6.30;99.90;;;;;;5077421;28;20021;-68
2023/03/05 04:22:15;;;;;;;0.85;0.45;;;6.20;99.90;;;;;;5078009;28;20100;-69
2023/03/05 04:24:41;;;;;;;5.55;0.98;;;6.20;99.90;;;;;;5076958;28;20032;-69
2023/03/05 04:27:07;;;;;;;1.30;0.40;;;6.20;99.90;;;;;;5077323;28;20012;-69
2023/03/05 04:29:33;;;;;;;4.75;0.73;;;6.10;99.90;;;;;;5078009;28;20024;-69
2023/03/05 04:31:59;;;;;;;2.60;0.50;;;6.20;99.90;;;;;;5077286;28;20036;-69
2023/03/05 04:34:24;;;;;;;1.60;0.63;;;6.20;99.90;;;;;;5078102;28;20021;-69
2023/03/05 04:36:50;;;;;;;5.05;1.13;;;6.30;99.90;;;;;;5077024;28;20031;-69
2023/03/05 04:39:16;;;;;;;2.38;0.45;;;6.40;99.90;;;;;;5077192;28;20032;-69
2023/03/05 04:41:41;;;;;;;2.20;0.50;;;6.40;99.90;;;;;;5078460;28;20027;-69
2023/03/05 04:44:07;;;;;;;2.50;0.50;;;6.30;99.90;;;;;;5077154;28;20105;-69
2023/03/05 04:46:33;;;;;;;2.38;0.50;;;6.40;99.90;;;;;;5077277;28;20021;-69
2023/03/05 04:48:58;;;;;;;2.10;0.30;;;6.30;99.90;;;;;;5076898;28;20074;-69
2023/03/05 04:51:24;;;;;;;2.47;0.55;;;6.20;99.90;;;;;;5076857;28;20028;-69
2023/03/05 04:53:50;;;;;;;2.97;0.73;;;6.20;99.90;;;;;;5077176;28;20032;-69
2023/03/05 04:56:15;;;;;;;5.20;0.75;;;6.30;99.90;;;;;;5077558;28;20024;-69
2023/03/05 04:58:41;;;;;;;3.15;0.55;;;6.30;99.90;;;;;;5078018;28;20051;-69
2023/03/05 05:01:06;;;;;;;1.13;0.50;;;6.30;99.90;;;;;;5076829;28;20031;-69
2023/03/05 05:03:33;;;;;;;3.20;0.40;;;6.20;99.90;;;;;;5077572;28;20074;-69
2023/03/05 05:05:59;;;;;;;3.67;0.40;;;6.20;99.90;;;;;;5076732;28;20020;-69
2023/03/05 05:08:26;;;;;;;3.88;0.50;;;6.10;99.90;;;;;;5076525;28;20021;-69
2023/03/05 05:11:03;;;;;;;1.58;0.50;;;6.10;99.90;;;;;;5076565;28;20103;-69
2023/03/05 05:13:30;;;;;;;3.92;0.50;;;6.20;99.90;;;;;;5076524;28;20020;-69
2023/03/05 05:15:56;;;;;;;2.05;0.40;;;6.20;99.90;;;;;;5076586;28;20031;-69
2023/03/05 05:18:22;;;;;;;1.17;0.63;;;6.20;99.90;;;;;;5081277;28;20044;-69
2023/03/05 05:20:48;;;;;;;7.55;0.93;;;6.20;99.90;;;;;;5077088;28;20020;-69
2023/03/05 05:23:15;;;;;;;8.25;0.57;;;6.30;99.90;;;;;;5076177;28;20028;-69
2023/03/05 05:25:42;;;;;;;2.65;0.55;;;6.20;99.90;;;;;;5076423;28;20016;-69
2023/03/05 05:28:08;;;;;;;3.22;0.77;;;6.20;99.90;;;;;;5077336;28;20017;-69
2023/03/05 05:30:34;;;;;;;3.40;0.35;;;6.20;99.90;;;;;;5077129;28;20024;-67
2023/03/05 05:32:59;;;;;;;3.08;0.55;;;6.20;99.90;;;;;;5076133;28;20024;-68
2023/03/05 05:35:25;;;;;;;2.65;0.63;;;6.20;99.90;;;;;;5076193;28;20031;-68
2023/03/05 05:37:51;;;;;;;1.27;0.40;;;6.10;99.90;;;;;;5077517;28;20016;-68
2023/03/05 05:40:16;;;;;;;6.20;0.80;;;6.10;99.90;;;;;;5076441;28;20020;-68
2023/03/05 05:42:43;;;;;;;1.90;0.70;;;6.20;99.90;;;;;;5076299;28;20105;-68
2023/03/05 05:45:09;;;;;;;1.98;1.00;;;6.20;99.90;;;;;;5077048;28;20115;-69
2023/03/05 05:47:34;;;;;;;7.85;0.57;;;6.10;99.90;;;;;;5076827;28;20020;-69
2023/03/05 05:50:00;;;;;;;2.45;0.60;;;6.10;99.90;;;;;;5076742;28;20031;-69
2023/03/05 05:52:26;;;;;;;2.15;0.60;;;6.00;99.90;;;;;;5076659;28;20031;-69
2023/03/05 05:54:51;;;;;;;1.02;0.50;;;6.00;99.90;;;;;;5075878;28;20029;-69
2023/03/05 05:57:17;;;;;;;1.30;0.35;;;6.00;99.90;;;;;;5076066;28;20056;-66
2023/03/05 05:59:42;;;;;;;4.57;0.63;;;6.00;99.90;;;;;;5077075;28;20123;-68
2023/03/05 06:02:09;;;;;;;2.00;0.40;;;6.00;99.90;;;;;;5076925;28;20055;-68
2023/03/05 06:04:35;;;;;;;5.70;0.90;;;5.90;99.90;;;;;;5075838;28;20025;-68
2023/03/05 06:07:02;;;;;;;0.90;0.60;;;6.00;99.90;;;;;;5076179;28;20020;-68
2023/03/05 06:09:27;;;;;;;1.35;0.60;;;6.10;99.90;;;;;;5075957;28;20021;-68
2023/03/05 06:11:53;;;;;;;2.28;0.40;;;6.10;99.90;;;;;;5076543;28;20032;-68
2023/03/05 06:14:19;;;;;;;2.47;1.02;;;6.20;99.90;;;;;;5075814;28;20029;-68
2023/03/05 06:16:44;;;;;;;2.10;0.73;;;6.20;99.90;;;;;;5076255;28;20021;-68
2023/03/05 06:19:12;;;;;;;3.95;0.90;;;6.10;99.90;;;;;;5075782;28;20021;-68
2023/03/05 06:21:37;;;;;;;6.53;1.98;;;6.00;99.90;;;;;;5075734;28;20073;-68
2023/03/05 06:24:03;;;;;;;9.23;2.42;;;6.00;99.90;;;;;;5076252;28;20025;-68
2023/03/05 06:26:29;;;;;;;5.40;1.70;;;6.00;99.90;;;;;;5076573;28;20017;-68
2023/03/05 06:28:55;;;;;;;4.53;1.00;;;6.00;99.90;;;;;;5075705;28;20166;-69
2023/03/05 06:31:26;;;;;;;4.18;0.70;;;5.90;99.90;;;;;;5076469;28;20016;-69
2023/03/05 06:33:53;;;;;;;2.25;0.90;;;5.90;99.90;;;;;;5076230;28;20025;-69
2023/03/05 06:36:21;;;;;;;2.22;0.80;;;5.90;99.90;;;;;;5076001;28;20090;-69
2023/03/05 06:38:48;;;;;;;3.20;0.70;;;6.00;99.90;;;;;;5075968;28;20078;-69
2023/03/05 06:41:20;;;;;;;2.53;0.80;;;6.00;99.90;;;;;;5076646;28;20032;-69
2023/03/05 06:43:47;;;;;;;3.55;0.90;;;5.80;99.90;;;;;;5075267;28;20029;-69
2023/03/05 06:46:16;;;;;;;6.53;0.80;;;5.80;99.90;;;;;;5076683;28;20112;-69
2023/03/05 06:48:42;;;;;;;4.75;0.95;;;5.80;99.90;;;;;;5080076;28;20024;-69
2023/03/05 06:51:14;;;;;;;2.35;0.85;;;5.80;99.90;;;;;;5080061;28;20028;-69
2023/03/05 06:53:39;;;;;;;;;;;5.70;99.90;;;;;;5079477;28;20038;-69
2023/03/05 06:56:05;;;;;;;2.75;0.60;;;5.70;99.90;;;;;;5079365;28;19999;-69
2023/03/05 06:58:31;;;;;;;1.33;0.70;;;5.80;99.90;;;;;;5079401;28;20128;-69
2023/03/05 07:00:56;;;;;;;3.53;0.80;;;5.80;99.90;;;;;;5078997;28;20025;-69
2023/03/05 07:03:22;;;;;;;4.25;1.00;;;5.90;99.90;;;;;;5078785;28;20024;-69
2023/03/05 07:05:47;;;;;;;4.57;1.15;;;5.90;99.90;;;;;;5078852;28;20024;-69
2023/03/05 07:08:13;;;;;;;3.30;0.93;;;5.80;99.90;;;;;;5079222;28;20027;-69
2023/03/05 07:10:40;;;;;;;3.28;1.10;;;5.70;99.90;;;;;;5079006;28;20063;-69
2023/03/05 07:13:06;;;;;;;2.50;1.02;;;5.80;99.90;;;;;;5078625;28;20115;-69
2023/03/05 07:15:32;;;;;;;3.95;1.10;;;5.90;99.90;;;;;;5079570;28;20028;-69
2023/03/05 07:17:58;;;;;;;3.13;1.50;;;5.90;99.90;;;;;;5078695;28;20031;-69
2023/03/05 07:20:23;;;;;;;7.45;1.63;;;5.90;99.90;;;;;;5079659;28;20025;-69
2023/03/05 07:22:49;;;;;;;7.00;1.67;;;5.90;99.90;;;;;;5079459;28;20064;-69
2023/03/05 07:25:20;;;;;;;6.03;1.88;;;5.90;99.90;;;;;;5078541;28;20020;-69
2023/03/05 07:27:46;;;;;;;3.13;1.90;;;5.90;99.90;;;;;;5083796;28;20104;-68
2023/03/05 07:30:12;;;;;;;6.25;2.08;;;5.80;99.90;;;;;;5078349;28;20056;-68
2023/03/05 07:32:37;;;;;;;3.85;1.60;;;5.80;99.90;;;;;;5078602;28;20055;-68
2023/03/05 07:35:03;;;;;;;7.07;2.08;;;5.90;99.90;;;;;;5079111;28;20020;-68
2023/03/05 07:37:28;;;;;;;5.13;2.45;;;6.00;99.90;;;;;;5078247;28;20021;-68
2023/03/05 07:39:54;;;;;;;7.97;2.08;;;6.10;99.90;;;;;;5079524;28;20024;-68
2023/03/05 07:42:19;;;;;;;12.73;3.40;;;6.20;99.90;;;;;;5078410;28;20040;-68
2023/03/05 07:44:45;;;;;;;9.25;3.25;;;6.10;99.90;;;;;;5081038;28;20040;-68
2023/03/05 07:47:10;;;;;;;13.25;5.38;;;6.00;99.90;;;;;;5078953;28;20020;-68
2023/03/05 07:49:38;;;;;;;11.40;4.25;;;6.10;99.90;;;;;;5080312;28;20031;-68
2023/03/05 07:52:05;;;;;;;7.97;3.22;;;6.10;99.90;;;;;;5078455;28;20020;-68
2023/03/05 07:54:30;;;;;;;10.32;3.92;;;6.00;99.90;;;;;;5077908;28;20021;-69
2023/03/05 07:56:56;;;;;;;8.32;2.72;;;6.00;99.90;;;;;;5078497;28;20086;-69
2023/03/05 07:59:21;;;;;;;5.28;3.00;;;6.00;99.90;;;;;;5077949;28;20029;-69
2023/03/05 08:01:47;;;;;;;9.48;2.85;;;5.90;99.90;;;;;;5078546;28;20096;-69
2023/03/05 08:04:12;;;;;;;6.60;2.45;;;5.90;99.90;;;;;;5078819;28;20039;-69
2023/03/05 08:06:39;;;;;;;5.80;3.00;;;5.80;99.90;;;;;;5078729;28;20020;-69
2023/03/05 08:09:05;;;;;;;13.88;4.75;;;5.70;99.90;;;;;;5078583;28;20021;-69
2023/03/05 08:11:30;;;;;;;6.30;3.10;;;5.70;99.90;;;;;;5078592;28;20024;-69
2023/03/05 08:13:58;;;;;;;7.20;3.17;;;5.70;99.90;;;;;;5077508;28;20033;-69
2023/03/05 08:16:25;;;;;;;7.65;3.25;;;5.80;99.90;;;;;;5077533;28;20025;-69
2023/03/05 08:18:55;;;;;;;11.32;3.22;;;5.80;99.90;;;;;;5077532;28;20027;-69
2023/03/05 08:21:28;;;;;;;13.07;3.60;;;5.90;99.90;;;;;;5078279;28;20042;-69
2023/03/05 08:23:56;;;;;;;8.65;3.58;;;6.00;99.90;;;;;;5077795;28;20115;-69
2023/03/05 08:26:23;;;;;;;10.23;4.13;;;6.00;99.90;;;;;;5077485;28;20025;-69
2023/03/05 08:28:50;;;;;;;9.75;3.30;;;6.00;99.90;;;;;;5077841;28;20025;-68
2023/03/05 08:31:18;;;;;;;7.90;3.25;;;6.00;99.90;;;;;;5078881;28;20021;-68
2023/03/05 08:33:43;;;;;;;8.55;3.55;;;5.80;99.90;;;;;;5077844;28;20028;-68
2023/03/05 08:36:09;;;;;;;7.55;2.88;;;5.60;99.90;;;;;;5077260;28;20028;-68
2023/03/05 08:38:35;;;;;;;12.68;4.03;;;5.70;99.90;;;;;;5077869;28;20034;-68
2023/03/05 08:41:01;;;;;;;12.05;3.58;;;5.90;99.90;;;;;;5077899;28;20029;-68
2023/03/05 08:43:27;;;;;;;9.27;4.03;;;5.90;99.90;;;;;;5076727;28;20115;-69
2023/03/05 08:45:52;;;;;;;11.98;3.50;;;5.90;99.90;;;;;;5077637;28;20048;-69
2023/03/05 08:48:19;;;;;;;9.75;3.95;;;6.00;99.90;;;;;;5077925;28;20031;-69
2023/03/05 08:50:44;;;;;;;12.43;3.83;;;6.00;99.90;;;;;;5076706;28;20029;-69
2023/03/05 08:53:10;;;;;;;14.75;3.67;;;6.10;99.90;;;;;;5076696;28;20020;-69
2023/03/05 08:55:36;;;;;;;14.43;3.88;;;6.10;99.90;;;;;;5076920;28;20029;-69
2023/03/05 08:58:02;;;;;;;11.77;4.07;;;5.90;99.90;;;;;;5077904;28;20024;-69
2023/03/05 09:00:28;;;;;;;8.43;4.15;;;5.90;99.90;;;;;;5076957;28;20131;-69
2023/03/05 09:02:53;;;;;;;9.95;4.95;;;5.80;99.90;;;;;;5076628;28;20044;-68
2023/03/05 09:05:19;;;;;;;12.23;4.05;;;5.70;99.90;;;;;;5077738;28;20057;-68
2023/03/05 09:07:45;;;;;;;15.52;3.97;;;5.70;99.90;;;;;;5077511;28;20025;-69
2023/03/05 09:10:13;;;;;;;10.00;3.78;;;5.80;99.90;;;;;;5076126;28;20020;-70
2023/03/05 09:12:42;;;;;;;8.30;3.88;;;5.80;99.90;;;;;;5076491;28;20024;-69
2023/03/05 09:15:10;;;;;;;9.65;3.45;;;5.90;99.90;;;;;;5077449;28;20032;-69
2023/03/05 09:17:37;;;;;;;11.43;4.68;;;5.90;99.90;;;;;;5076972;28;20120;-68
2023/03/05 09:20:05;;;;;;;13.73;4.30;;;5.80;99.90;;;;;;5077370;28;20089;-68
2023/03/05 09:22:31;;;;;;;8.90;3.75;;;5.80;99.90;;;;;;5077162;28;20156;-69
2023/03/05 09:24:57;;;;;;;10.57;4.30;;;5.90;99.90;;;;;;5077016;28;20053;-69
2023/03/05 09:27:22;;;;;;;9.57;4.05;;;5.90;99.90;;;;;;5076807;28;20111;-69
2023/03/05 09:29:49;;;;;;;11.45;4.03;;;5.90;99.90;;;;;;5076475;28;20029;-69
2023/03/05 09:32:14;;;;;;;12.27;4.70;;;6.00;99.90;;;;;;5077649;28;20024;-69
2023/03/05 09:34:40;;;;;;;19.65;5.75;;;6.00;99.90;;;;;;5076386;28;20071;-69
2023/03/05 09:37:07;;;;;;;7.35;3.53;;;6.00;99.90;;;;;;5077639;28;20100;-69
2023/03/05 09:39:32;;;;;;;11.85;4.78;;;5.90;99.90;;;;;;5076365;28;20024;-69
2023/03/05 09:42:27;;;;;;;11.40;4.40;;;5.90;99.90;;;;;;5076937;28;20108;-69
2023/03/05 09:45:21;;;;;;;8.15;3.97;;;5.90;99.90;;;;;;5076259;28;20064;-69
2023/03/05 09:48:17;;;;;;;10.57;4.43;;;5.90;99.90;;;;;;5070517;28;20040;-69
2023/03/05 09:50:49;;;;;;;9.65;4.10;;;5.90;99.90;;;;;;5077067;28;20028;-70
2023/03/05 09:53:45;;;;;;;10.02;4.78;;;6.00;99.90;;;;;;5077515;28;20024;-69
2023/03/05 09:56:25;;;;;;;8.35;4.32;;;6.00;99.90;;;;;;5076194;28;20036;-69
2023/03/05 09:59:01;;;;;;;13.73;4.57;;;6.20;99.90;;;;;;5076050;28;20021;-69
2023/03/05 10:01:40;;;;;;;12.77;5.03;;;6.30;99.90;;;;;;5076845;28;20028;-69
2023/03/05 10:04:12;;;;;;;9.88;5.05;;;6.20;99.90;;;;;;5075931;28;20032;-69
2023/03/05 10:06:51;;;;;;;12.50;5.35;;;6.10;99.90;;;;;;5076769;28;20032;-70
2023/03/05 10:09:27;;;;;;;9.82;4.57;;;6.20;99.90;;;;;;5077051;28;20032;-69
2023/03/05 10:11:55;;;;;;;7.63;3.28;;;6.20;99.90;;;;;;5077233;28;20106;-68
2023/03/05 10:14:29;;;;;;;6.85;3.25;;;6.30;99.90;;;;;;5076743;28;20082;-68
2023/03/05 10:17:10;;;;;;;5.93;3.15;;;6.40;99.90;;;;;;5076832;28;20084;-68
2023/03/05 10:20:03;;;;;;;6.55;2.40;;;6.50;99.90;;;;;;5076827;28;20031;-68
2023/03/05 10:22:32;;;;;;;7.28;2.45;;;6.50;99.90;;;;;;5078948;28;20027;-68
2023/03/05 10:25:21;;;;;;;4.25;2.17;;;6.60;99.90;;;;;;5079588;28;20046;-68
2023/03/05 10:27:58;;;;;;;4.25;2.00;;;6.70;99.90;;;;;;5072347;28;20064;-68
2023/03/05 10:30:45;;;;;;;4.60;2.15;;;6.70;99.90;;;;;;5080766;28;20029;-67
2023/03/05 10:33:57;;;;;;;4.68;2.17;;;6.70;99.90;;;;;;5084219;28;20021;-68
2023/03/05 10:36:30;;;;;;;5.22;2.20;;;6.80;99.90;;;;;;5070533;28;20047;-68
2023/03/05 10:39:18;;;;;;;7.22;2.33;;;6.80;99.90;;;;;;5080840;28;20040;-67
2023/03/05 10:42:06;;;;;;;9.48;2.50;;;6.80;99.90;;;;;;5080512;28;20064;-68
2023/03/05 10:44:43;;;;;;;7.60;2.65;;;6.80;99.90;;;;;;5079532;28;20033;-69
2023/03/05 10:47:24;;;;;;;6.05;2.15;;;7.00;99.90;;;;;;5079609;28;20122;-69
2023/03/05 10:49:56;;;;;;;4.90;2.50;;;6.90;99.90;;;;;;5079378;28;20020;-69
2023/03/05 10:52:32;;;;;;;6.82;1.92;;;6.90;99.90;;;;;;5081427;28;20028;-69
2023/03/05 10:54:57;;;;;;;3.83;2.15;;;6.90;99.90;;;;;;5079545;28;20088;-69
2023/03/05 10:57:26;;;;;;;7.30;1.92;;;6.70;99.90;;;;;;5079959;28;20056;-69
2023/03/05 11:00:05;;;;;;;9.73;1.83;;;6.80;99.90;;;;;;5078977;28;20056;-66
2023/03/05 11:02:31;;;;;;;6.95;1.77;;;6.80;99.90;;;;;;5079770;28;20028;-66
2023/03/05 11:04:56;;;;;;;3.28;1.50;;;6.80;99.90;;;;;;5079822;28;20035;-66
2023/03/05 11:07:22;;;;;;;3.97;1.35;;;6.80;99.90;;;;;;5078890;28;20111;-66
2023/03/05 11:10:03;;;;;;;5.90;1.00;;;6.80;99.90;;;;;;5079866;28;20103;-66
2023/03/05 11:12:34;;;;;;;1.20;0.85;;;6.80;99.90;;;;;;5079664;28;20095;-66
2023/03/05 11:15:26;;;;;;;2.73;1.17;;;6.80;99.90;;;;;;5078576;28;20034;-66
2023/03/05 11:18:15;;;;;;;2.40;1.20;;;6.70;99.90;;;;;;5079306;28;20024;-66
2023/03/05 11:20:41;;;;;;;4.82;1.00;;;6.70;99.90;;;;;;5078595;28;20025;-66
2023/03/05 11:23:22;;;;;;;1.48;0.90;;;6.80;99.90;;;;;;5079450;28;20047;-66
2023/03/05 11:26:00;;;;;;;7.15;1.50;;;6.80;99.90;;;;;;5079318;28;20030;-66
2023/03/05 11:28:31;;;;;;;5.05;1.15;;;6.80;99.90;;;;;;5079485;28;20032;-66
2023/03/05 11:31:03;;;;;;;2.85;1.60;;;6.80;99.90;;;;;;5080145;28;20021;-66
2023/03/05 11:33:30;;;;;;;5.90;1.48;;;6.80;99.90;;;;;;5079462;28;20024;-67
2023/03/05 11:36:30;;;;;;;2.25;1.17;;;6.70;99.90;;;;;;5079782;28;20039;-66
2023/03/05 11:39:05;;;;;;;3.28;1.30;;;6.70;99.90;;;;;;5064514;28;20094;-67
2023/03/05 11:41:41;;;;;;;1.85;1.10;;;6.70;99.90;;;;;;5059350;28;20081;-66
2023/03/05 11:44:12;;;;;;;3.33;1.38;;;6.80;99.90;;;;;;5058041;28;20040;-66
2023/03/05 11:46:42;;;;;;;4.63;1.15;;;6.80;99.90;;;;;;5099356;22;20028;-67
2023/03/05 11:49:15;;;;;;;1.73;1.17;;;6.80;99.90;;;;;;5080854;28;20020;-67
2023/03/05 11:52:01;;;;;;;3.72;1.27;;;6.90;99.90;;;;;;5082706;28;20073;-66
2023/03/05 11:54:39;;;;;;;1.50;0.85;;;7.00;99.90;;;;;;5080930;28;20063;-67
2023/03/05 11:57:05;;;;;;;2.35;1.10;;;6.90;99.90;;;;;;5099146;28;20039;-66
2023/03/05 11:59:38;;;;;;;4.75;1.17;;;7.00;99.90;;;;;;5081166;28;20043;-67
2023/03/05 12:02:32;;;;;;;2.63;1.20;;;7.10;99.90;;;;;;5081509;28;20101;-67
2023/03/05 12:05:01;;;;;;;6.35;1.38;;;7.20;99.90;;;;;;5081642;28;20020;-67
2023/03/05 12:07:39;;;;;;;2.33;1.35;;;7.30;99.90;;;;;;5082090;28;20016;-67
2023/03/05 12:10:06;;;;;;;4.38;1.63;;;7.30;99.90;;;;;;5082051;28;20056;-67
2023/03/05 12:12:50;;;;;;;4.60;1.60;;;7.20;99.90;;;;;;5080934;28;20073;-67
2023/03/05 12:15:40;;;;;;;3.72;1.27;;;7.20;99.90;;;;;;5080987;28;20028;-67
2023/03/05 12:18:22;;;;;;;5.55;1.10;;;7.30;99.90;;;;;;5080816;28;20024;-67
2023/03/05 12:21:12;;;;;;;5.78;1.33;;;7.40;99.90;;;;;;5098769;28;20070;-67
2023/03/05 12:24:00;;;;;;;3.15;1.10;;;7.40;99.90;;;;;;5081386;28;20059;-67
2023/03/05 12:26:58;;;;;;;1.00;0.80;;;7.30;99.90;;;;;;5081706;28;20028;-67
2023/03/05 12:29:42;;;;;;;3.70;0.73;;;7.30;99.90;;;;;;5081632;28;20024;-67
2023/03/05 12:32:32;;;;;;;1.58;0.95;;;7.10;99.90;;;;;;5098654;28;20020;-67
2023/03/05 12:34:58;;;;;;;1.65;0.95;;;7.10;99.90;;;;;;5080708;28;20024;-67
2023/03/05 12:37:24;;;;;;;4.82;1.13;;;7.00;99.90;;;;;;5098487;28;20036;-67
2023/03/05 12:40:07;;;;;;;1.90;1.15;;;7.00;99.90;;;;;;5080937;28;20030;-67
2023/03/05 12:42:33;;;;;;;3.03;0.90;;;7.10;99.90;;;;;;5081191;28;20111;-67
2023/03/05 12:45:14;;;;;;;6.20;1.45;;;7.00;99.90;;;;;;5079907;28;20040;-67
2023/03/05 12:47:41;;;;;;;3.22;1.60;;;6.80;99.90;;;;;;5080687;28;20026;-67
2023/03/05 12:50:25;;;;;;;4.50;1.40;;;7.00;99.90;;;;;;5080768;28;20119;-67
2023/03/05 12:52:52;;;;;;;7.93;2.60;;;6.90;99.90;;;;;;5080845;28;20028;-67
2023/03/05 12:55:21;;;;;;;5.50;1.70;;;6.70;99.90;;;;;;5080371;28;20039;-67
2023/03/05 12:57:53;;;;;;;4.00;2.05;;;6.50;99.90;;;;;;5080647;28;20024;-67
2023/03/05 13:00:32;;;;;;;4.50;2.30;;;6.60;99.90;;;;;;5080124;28;20073;-67
2023/03/05 13:03:01;;;;;;;5.18;2.20;;;6.50;99.90;;;;;;5079922;28;20051;-67
2023/03/05 13:05:33;;;;;;;8.15;1.70;;;6.50;99.90;;;;;;5079902;28;20119;-67